Jump to content


FEDEX FLIGHT FX454 FLOWN ON 06-03-2017 BY CAPTAIN TYLER HANUS

Pilot StatsCaptain Tyler Hanus (LDP525) • 171.1 total hours • 28 total flights [View Logbook]
FLIGHT DETAILS
StatusReceived and approved on 2017-06-02 at 20:06:03
Origin AirportPhoenix Sky Harbor Intl (KPHX) • Phoenix, Arizona, United States (1,135 feet MSL)
Filed Flight PlanFLIGHT PLANNER OFFLINE
Destination AirportMetro Oakland Intl (KOAK) • Oakland, California, United States (6 feet MSL)
Alternate AirportSan Francisco Intl (KSFO) • San Francisco, California, United States (13 feet MSL)
AirlineFedEx
AircraftBoeing 777-200 Freighter (77F / B777-200F)
FS Aircraft UsedPMDG 777-FS2 FedEx Express
Cruising AltitudeFL360
Distance Flown560 nautical miles
Cargo Onboard131,800 lbs (97.12% full)
DEPARTURE DETAILS
Time Out16:03:04
Taxi Data545,328 lbs total with 101,728 lbs of fuel onboard
Takeoff Data16:15:09 (12 minutes after leaving gate/ramp) • 543,605 lbs total • 5° pitch at 156 knots
Departure METARKPHX 022151Z 24005KT 10SM FEW090 38/02 A2973 RMK AO2 SLP048 T03780017
ARRIVAL DETAILS
Landing Data17:45:07 • 517,648 lbs total • 5° pitch doing 133 knots at a rate of -333.72 feet/minute with 73,313 lbs of fuel onboard
Time In17:51:32 (6 minutes after landing)
Ramp Weight516,913 lbs total
Total Fuel Used28,415 lbs
Total Block Time01:45:37 (1.8 hours) while 19 minutes were spent on the ground
Arrival METARKOAK 030053Z 27014KT 10SM FEW200 20/12 A2990 RMK AO2 SLP126 T02000117
MISCELLANEOUS DETAILS
LiveDISPATCH Version4.8.3.1
FS Version
FSUIPC Version4.96
OS VersionWindows 7 32-bit
Screen Resolution1360 x 768
Pilot's CommentsNo Comments Reported
FLIGHT MAP